Alto, Texas
Current Conditions -  °F | °C
As of 9:55 PM on Saturday 25 Oct 2014 (Local Time) from KJSO Reporting Station
Clear Clear  
Wind Chill: 73°   Ceiling: Unl
Heat Index: 73°   Visibility: 10mi
Dew Point: 64°   Wind: 7mph
Humidity: 74%   Direction: 190°S
Pressure: 30.12"   Gusts: NA
Location:  31.65°N, 95.07°W
Report Text: KJSO 260255Z AUTO 19006KT 10SM CLR 22/17 A3012 RMK AO2 T02250177
Loading
Personal Weather Stations






























Interactive Weather Map
Tropical Storm Tracking
New forecast layout! Learn more

10-Day Weather Forecast

Advertisements
Track Severe Weather on mobile